Time;durP1;ratioP1;P1;durP2;ratioP2;P2;SDS_P1;SDS_P2;PMS_P1;PMS_P2;Temp;Humidity;BMP_temperature;BMP_pressure;BME280_temperature;BME280_humidity;BME280_pressure;Samples;Min_cycle;Max_cycle;Signal;HPM_P1;HPM_P2
2020/12/22 00:01:37;;;;;;;36.60;6.32;;;12.90;99.90;;;;;;4990048;28;20438;-75
2020/12/22 00:04:04;;;;;;;44.78;6.88;;;12.90;99.90;;;;;;4997006;28;20460;-77
2020/12/22 00:06:30;;;;;;;38.83;6.43;;;12.90;99.90;;;;;;4993148;28;20420;-76
2020/12/22 00:08:56;;;;;;;54.00;7.93;;;12.90;99.90;;;;;;4994687;28;20466;-77
2020/12/22 00:11:24;;;;;;;43.97;7.38;;;12.90;99.90;;;;;;4976421;28;20787;-78
2020/12/22 00:13:50;;;;;;;56.80;7.70;;;12.90;99.90;;;;;;4995258;28;21029;-76
2020/12/22 00:16:16;;;;;;;54.90;7.55;;;12.90;99.90;;;;;;4993274;28;20432;-76
2020/12/22 00:18:43;;;;;;;47.03;8.50;;;12.90;99.90;;;;;;4977222;28;20458;-77
2020/12/22 00:21:09;;;;;;;56.75;9.05;;;13.00;99.90;;;;;;4995572;28;21001;-76
2020/12/22 00:23:36;;;;;;;52.60;8.35;;;13.00;99.90;;;;;;4974135;28;20428;-76
2020/12/22 00:26:02;;;;;;;48.03;7.30;;;12.90;99.90;;;;;;4995728;28;20436;-77
2020/12/22 00:28:30;;;;;;;39.05;6.38;;;13.00;99.90;;;;;;4995740;28;20421;-77
2020/12/22 00:30:56;;;;;;;34.45;5.90;;;12.90;99.90;;;;;;4974301;28;20463;-77
2020/12/22 00:33:22;;;;;;;30.20;4.53;;;13.00;99.90;;;;;;4994763;28;20945;-77
2020/12/22 00:35:49;;;;;;;25.50;4.03;;;13.00;99.90;;;;;;4997812;28;20473;-77
2020/12/22 00:38:15;;;;;;;20.95;3.33;;;13.00;99.90;;;;;;4999649;28;20436;-77
2020/12/22 00:40:44;;;;;;;23.10;3.30;;;12.90;99.90;;;;;;4994497;28;20492;-76
2020/12/22 00:43:11;;;;;;;13.68;2.13;;;13.00;99.90;;;;;;4990506;28;20432;-77
2020/12/22 00:45:38;;;;;;;12.23;2.00;;;12.80;99.90;;;;;;4973188;28;20977;-76
2020/12/22 00:48:04;;;;;;;11.40;1.50;;;12.80;99.90;;;;;;4973808;28;20474;-75
2020/12/22 00:50:31;;;;;;;12.10;1.37;;;12.70;99.90;;;;;;4972859;28;20433;-76
2020/12/22 00:52:57;;;;;;;7.07;1.10;;;12.70;99.90;;;;;;4986805;28;20826;-76
2020/12/22 00:55:23;;;;;;;6.75;1.10;;;12.70;99.90;;;;;;4984154;28;20528;-76
2020/12/22 00:57:56;;;;;;;5.82;1.30;;;12.60;99.90;;;;;;4983370;28;20966;-77
2020/12/22 01:00:23;;;;;;;9.68;1.42;;;12.60;99.90;;;;;;4972577;28;20429;-76
2020/12/22 01:02:50;;;;;;;10.63;1.60;;;12.60;99.90;;;;;;4974116;28;20435;-77
2020/12/22 01:05:16;;;;;;;12.17;1.50;;;12.60;99.90;;;;;;4971885;28;20754;-76
2020/12/22 01:07:43;;;;;;;10.10;1.40;;;12.60;99.90;;;;;;4980296;28;20416;-76
2020/12/22 01:10:09;;;;;;;9.75;1.67;;;12.50;99.90;;;;;;4983757;28;20438;-76
2020/12/22 01:12:36;;;;;;;11.18;1.70;;;12.50;99.90;;;;;;4977940;28;20487;-76
2020/12/22 01:15:03;;;;;;;12.07;1.67;;;12.50;99.90;;;;;;4976803;28;20447;-76
2020/12/22 01:17:29;;;;;;;15.38;1.90;;;12.60;99.90;;;;;;4978686;28;20430;-76
2020/12/22 01:19:57;;;;;;;10.15;1.50;;;12.60;99.90;;;;;;4988224;28;20430;-76
2020/12/22 01:22:23;;;;;;;9.80;1.48;;;12.50;99.90;;;;;;4976477;28;21040;-76
2020/12/22 01:24:49;;;;;;;9.68;1.17;;;12.50;99.90;;;;;;4979960;28;20432;-76
2020/12/22 01:27:16;;;;;;;8.65;1.30;;;12.50;99.90;;;;;;4972850;28;20927;-76
2020/12/22 01:29:42;;;;;;;6.03;1.30;;;12.50;99.90;;;;;;4973588;28;20462;-76
2020/12/22 01:32:08;;;;;;;13.15;1.60;;;12.50;99.90;;;;;;4976625;28;20432;-77
2020/12/22 01:34:35;;;;;;;8.52;1.55;;;12.50;99.90;;;;;;4974944;28;20423;-77
2020/12/22 01:37:02;;;;;;;10.32;1.60;;;12.50;99.90;;;;;;4973025;28;20436;-76
2020/12/22 01:39:28;;;;;;;12.23;1.70;;;12.50;99.90;;;;;;4975182;28;20418;-77
2020/12/22 01:41:55;;;;;;;14.20;1.70;;;12.50;99.90;;;;;;4968435;28;20447;-77
2020/12/22 01:44:21;;;;;;;7.72;1.55;;;12.60;99.90;;;;;;4970562;28;20434;-78
2020/12/22 01:46:50;;;;;;;9.40;1.35;;;12.60;99.90;;;;;;4968078;28;20426;-77
2020/12/22 01:49:19;;;;;;;8.80;1.30;;;12.60;99.90;;;;;;4970880;28;20419;-76
2020/12/22 01:51:47;;;;;;;8.40;1.40;;;12.50;99.90;;;;;;4974072;28;20441;-75
2020/12/22 01:54:15;;;;;;;16.27;2.20;;;12.60;99.90;;;;;;4983943;28;20439;-77
2020/12/22 01:56:41;;;;;;;13.57;2.15;;;12.60;99.90;;;;;;4986059;28;20469;-76
2020/12/22 01:59:08;;;;;;;10.38;1.85;;;12.50;99.90;;;;;;4988263;28;20442;-76
2020/12/22 02:01:35;;;;;;;8.63;1.80;;;12.60;99.90;;;;;;4984458;28;20410;-75
2020/12/22 02:04:04;;;;;;;16.60;2.50;;;12.50;99.90;;;;;;4977612;28;20505;-75
2020/12/22 02:06:31;;;;;;;16.70;2.90;;;12.50;99.90;;;;;;4974808;28;21298;-75
2020/12/22 02:08:59;;;;;;;21.13;3.05;;;12.50;99.90;;;;;;4968838;28;20439;-75
2020/12/22 02:11:27;;;;;;;23.10;2.70;;;12.50;99.90;;;;;;4972798;28;20922;-75
2020/12/22 02:13:54;;;;;;;17.35;2.67;;;12.50;99.90;;;;;;4982884;28;20432;-75
2020/12/22 02:16:21;;;;;;;11.13;2.40;;;12.50;99.90;;;;;;4971034;28;20430;-76
2020/12/22 02:18:48;;;;;;;14.95;2.40;;;12.50;99.90;;;;;;4981133;28;20418;-76
2020/12/22 02:21:16;;;;;;;19.25;3.08;;;12.50;99.90;;;;;;4972751;28;20423;-76
2020/12/22 02:23:43;;;;;;;20.00;3.42;;;12.60;99.90;;;;;;4978656;28;20432;-76
2020/12/22 02:26:09;;;;;;;21.33;3.50;;;12.60;99.90;;;;;;4983168;28;20431;-76
2020/12/22 02:28:35;;;;;;;28.10;3.83;;;12.50;99.90;;;;;;4985792;28;20419;-75
2020/12/22 02:31:03;;;;;;;28.83;3.88;;;12.60;99.90;;;;;;4982723;28;20819;-75
2020/12/22 02:33:30;;;;;;;29.17;4.20;;;12.60;99.90;;;;;;4989804;28;20453;-76
2020/12/22 02:35:56;;;;;;;35.90;4.57;;;12.60;99.90;;;;;;4986770;28;20764;-75
2020/12/22 02:38:24;;;;;;;39.70;5.47;;;12.60;99.90;;;;;;4992071;28;20413;-75
2020/12/22 02:40:50;;;;;;;36.15;5.32;;;12.60;99.90;;;;;;4985740;28;20433;-76
2020/12/22 02:43:17;;;;;;;47.78;5.70;;;12.70;99.90;;;;;;4992291;28;20418;-75
2020/12/22 02:45:44;;;;;;;58.17;6.22;;;12.70;99.90;;;;;;4986409;28;20422;-76
2020/12/22 02:48:11;;;;;;;57.10;6.35;;;12.70;99.90;;;;;;4988636;28;20418;-75
2020/12/22 02:50:38;;;;;;;62.25;7.03;;;12.70;99.90;;;;;;4982701;28;20500;-76
2020/12/22 02:53:05;;;;;;;58.70;6.78;;;12.70;99.90;;;;;;4977050;28;20430;-76
2020/12/22 02:55:33;;;;;;;71.45;7.15;;;12.70;99.90;;;;;;4986597;28;20826;-77
2020/12/22 02:57:59;;;;;;;70.32;7.35;;;12.70;99.90;;;;;;4975677;28;20473;-76
2020/12/22 03:00:26;;;;;;;65.03;6.53;;;12.80;99.90;;;;;;4988537;28;20430;-77
2020/12/22 03:02:53;;;;;;;66.25;6.28;;;12.80;99.90;;;;;;4976238;28;20958;-76
2020/12/22 03:05:19;;;;;;;64.05;6.22;;;12.80;99.90;;;;;;4979237;28;20438;-76
2020/12/22 03:07:46;;;;;;;59.85;6.18;;;12.80;99.90;;;;;;4983073;28;20880;-76
2020/12/22 03:10:14;;;;;;;59.53;6.63;;;12.80;99.90;;;;;;4990760;28;21197;-77
2020/12/22 03:12:41;;;;;;;73.38;7.22;;;12.80;99.90;;;;;;4979304;28;20912;-77
2020/12/22 03:15:10;;;;;;;68.82;7.55;;;12.80;99.90;;;;;;4972245;28;20450;-76
2020/12/22 03:17:37;;;;;;;64.97;7.25;;;12.80;99.90;;;;;;4974030;28;20781;-77
2020/12/22 03:20:05;;;;;;;54.90;6.70;;;12.80;99.90;;;;;;4982181;28;20436;-76
2020/12/22 03:22:32;;;;;;;58.33;6.63;;;12.80;99.90;;;;;;4971756;28;20512;-76
2020/12/22 03:24:58;;;;;;;65.63;7.13;;;12.80;99.90;;;;;;4970411;28;20424;-76
2020/12/22 03:27:25;;;;;;;65.90;6.70;;;12.80;99.90;;;;;;4974883;28;21059;-76
2020/12/22 03:29:52;;;;;;;60.57;6.37;;;12.80;99.90;;;;;;4978217;28;20435;-76
2020/12/22 03:32:18;;;;;;;58.72;6.57;;;12.80;99.90;;;;;;4975984;28;20438;-76
2020/12/22 03:34:45;;;;;;;52.13;6.20;;;12.80;99.90;;;;;;4982194;28;20934;-76
2020/12/22 03:37:19;;;;;;;55.87;6.30;;;12.80;99.90;;;;;;4976098;28;20443;-76
2020/12/22 03:39:47;;;;;;;55.70;6.47;;;12.80;99.90;;;;;;4989637;28;20458;-76
2020/12/22 03:42:13;;;;;;;53.53;6.18;;;12.90;99.90;;;;;;4982210;28;20422;-76
2020/12/22 03:44:40;;;;;;;50.58;6.00;;;12.90;99.90;;;;;;4985559;28;20908;-76
2020/12/22 03:47:07;;;;;;;51.72;5.82;;;12.90;99.90;;;;;;4984221;28;20490;-76
2020/12/22 03:49:34;;;;;;;42.92;5.18;;;12.90;99.90;;;;;;4986866;28;20885;-76
2020/12/22 03:52:00;;;;;;;41.07;5.27;;;13.00;99.90;;;;;;4986299;28;20534;-76
2020/12/22 03:54:26;;;;;;;45.38;4.95;;;13.00;99.90;;;;;;4974058;28;20438;-76
2020/12/22 03:56:53;;;;;;;41.63;5.32;;;13.00;99.90;;;;;;4975145;28;20434;-76
2020/12/22 03:59:19;;;;;;;45.25;5.40;;;13.00;99.90;;;;;;4985683;28;20492;-76
2020/12/22 04:01:49;;;;;;;48.00;5.57;;;13.00;99.90;;;;;;4988685;28;20423;-75
2020/12/22 04:04:19;;;;;;;47.67;5.53;;;13.10;99.90;;;;;;4976509;28;20440;-76
2020/12/22 04:06:45;;;;;;;50.45;5.53;;;13.10;99.90;;;;;;4972638;28;20502;-76
2020/12/22 04:09:12;;;;;;;53.55;5.88;;;13.10;99.90;;;;;;4972577;28;20435;-76
2020/12/22 04:11:40;;;;;;;50.53;6.15;;;13.10;99.90;;;;;;4973739;28;20434;-75
2020/12/22 04:14:10;;;;;;;51.38;5.75;;;13.10;99.90;;;;;;4973298;28;20494;-75
2020/12/22 04:16:37;;;;;;;56.00;6.10;;;13.00;99.90;;;;;;4978767;28;20866;-76
2020/12/22 04:19:04;;;;;;;46.75;5.95;;;13.10;99.90;;;;;;4976331;28;20441;-76
2020/12/22 04:21:31;;;;;;;50.30;5.68;;;13.00;99.90;;;;;;4977562;28;20425;-77
2020/12/22 04:23:58;;;;;;;49.00;6.25;;;13.00;99.90;;;;;;4978965;28;20775;-78
2020/12/22 04:26:25;;;;;;;47.28;6.10;;;13.00;99.90;;;;;;4982605;28;20422;-77
2020/12/22 04:28:52;;;;;;;56.50;6.53;;;13.00;99.90;;;;;;4983618;28;20434;-77
2020/12/22 04:31:21;;;;;;;52.28;6.45;;;13.00;99.90;;;;;;4991064;28;21789;-77
2020/12/22 04:33:48;;;;;;;46.63;6.13;;;13.00;99.90;;;;;;4976887;28;20820;-77
2020/12/22 04:36:14;;;;;;;55.95;6.72;;;13.00;99.90;;;;;;4979389;28;20940;-76
2020/12/22 04:38:41;;;;;;;51.00;6.45;;;12.90;99.90;;;;;;4973477;28;20438;-76
2020/12/22 04:41:12;;;;;;;52.65;6.20;;;12.90;99.90;;;;;;4981698;28;20896;-77
2020/12/22 04:43:39;;;;;;;51.38;6.70;;;13.00;99.90;;;;;;4987903;28;20414;-79
2020/12/22 04:46:07;;;;;;;49.20;5.85;;;13.00;99.90;;;;;;4975271;28;20444;-77
2020/12/22 04:48:36;;;;;;;53.72;6.78;;;13.00;99.90;;;;;;4976420;28;20425;-78
2020/12/22 04:51:06;;;;;;;55.05;6.13;;;13.00;99.90;;;;;;4974704;28;20434;-78
2020/12/22 04:53:33;;;;;;;52.60;6.40;;;13.00;99.90;;;;;;4990576;28;20449;-77
2020/12/22 04:56:02;;;;;;;47.92;5.78;;;13.00;99.90;;;;;;4978672;28;20515;-77
2020/12/22 04:58:29;;;;;;;44.57;5.70;;;13.00;99.90;;;;;;4975208;28;20426;-78
2020/12/22 05:00:56;;;;;;;45.47;5.93;;;12.90;99.90;;;;;;4986267;28;20434;-77
2020/12/22 05:03:23;;;;;;;43.10;5.90;;;13.00;99.90;;;;;;4982376;28;20489;-77
2020/12/22 05:05:50;;;;;;;42.92;5.97;;;13.00;99.90;;;;;;4982577;28;20433;-80
2020/12/22 05:08:17;;;;;;;40.83;5.28;;;13.00;99.90;;;;;;4977943;28;20438;-77
2020/12/22 05:10:48;;;;;;;41.25;5.18;;;13.10;99.90;;;;;;4979263;28;20440;-77
2020/12/22 05:13:17;;;;;;;45.05;5.78;;;13.10;99.90;;;;;;4974320;28;20453;-77
2020/12/22 05:15:44;;;;;;;43.03;5.60;;;13.10;99.90;;;;;;4986108;28;20430;-75
2020/12/22 05:18:11;;;;;;;47.37;5.30;;;13.20;99.90;;;;;;4981908;28;20439;-77
2020/12/22 05:20:40;;;;;;;38.38;5.22;;;13.20;99.90;;;;;;4971837;28;20434;-77
2020/12/22 05:23:09;;;;;;;43.03;4.85;;;13.20;99.90;;;;;;4969879;28;20479;-77
2020/12/22 05:25:36;;;;;;;39.78;5.15;;;13.20;99.90;;;;;;4970167;28;20416;-81
2020/12/22 05:28:02;;;;;;;40.50;4.85;;;13.20;99.90;;;;;;4987476;28;20503;-76
2020/12/22 05:30:31;;;;;;;39.85;5.15;;;13.20;99.90;;;;;;4979629;28;20542;-77
2020/12/22 05:32:57;;;;;;;35.10;5.03;;;13.20;99.90;;;;;;4985275;28;20423;-77
2020/12/22 05:35:24;;;;;;;41.50;5.40;;;13.30;99.90;;;;;;4978525;28;20428;-77
2020/12/22 05:37:51;;;;;;;37.58;5.10;;;13.30;99.90;;;;;;4971015;28;20833;-77
2020/12/22 05:40:19;;;;;;;39.75;5.15;;;13.30;99.90;;;;;;4972149;28;20915;-76
2020/12/22 05:42:46;;;;;;;33.03;4.97;;;13.30;99.90;;;;;;4984143;28;20555;-75
2020/12/22 05:45:13;;;;;;;31.80;4.60;;;13.30;99.90;;;;;;4980822;28;20442;-77
2020/12/22 05:47:40;;;;;;;35.08;4.70;;;13.30;99.90;;;;;;4989579;28;20919;-76
2020/12/22 05:50:06;;;;;;;36.27;4.80;;;13.30;99.90;;;;;;4975253;28;20504;-77
2020/12/22 05:52:33;;;;;;;36.93;4.70;;;13.30;99.90;;;;;;4970593;28;20437;-77
2020/12/22 05:55:00;;;;;;;31.58;4.90;;;13.40;99.90;;;;;;4978121;28;20432;-77
2020/12/22 05:57:27;;;;;;;32.47;4.60;;;13.40;99.90;;;;;;4980524;28;20443;-76
2020/12/22 05:59:55;;;;;;;33.30;4.45;;;13.40;99.90;;;;;;4968643;28;20997;-77
2020/12/22 06:02:28;;;;;;;36.20;4.80;;;13.40;99.90;;;;;;4984795;28;20940;-78
2020/12/22 06:04:58;;;;;;;37.08;4.70;;;13.30;99.90;;;;;;4978694;28;20442;-77
2020/12/22 06:07:25;;;;;;;41.92;5.50;;;13.40;99.90;;;;;;4981246;28;20833;-75
2020/12/22 06:09:52;;;;;;;37.65;5.13;;;13.30;99.90;;;;;;4975771;28;20421;-78
2020/12/22 06:12:20;;;;;;;43.63;5.88;;;13.40;99.90;;;;;;4994448;28;20864;-76
2020/12/22 06:14:49;;;;;;;46.47;6.05;;;13.30;99.90;;;;;;4986463;28;20493;-77
2020/12/22 06:17:16;;;;;;;38.90;5.40;;;13.30;99.90;;;;;;4972480;28;20993;-75
2020/12/22 06:19:44;;;;;;;37.67;5.07;;;13.30;99.90;;;;;;4974896;28;20434;-76
2020/12/22 06:22:14;;;;;;;42.22;5.65;;;13.30;99.90;;;;;;4985353;28;20415;-77
2020/12/22 06:24:41;;;;;;;42.33;6.13;;;13.20;99.90;;;;;;4975777;28;20510;-76
2020/12/22 06:27:09;;;;;;;38.70;5.22;;;13.20;99.90;;;;;;4984169;28;20419;-76
2020/12/22 06:29:36;;;;;;;38.10;4.93;;;13.20;99.90;;;;;;4986893;28;20450;-76
2020/12/22 06:32:23;;;;;;;43.55;5.78;;;13.20;99.90;;;;;;4985239;28;20482;-76
2020/12/22 06:34:50;;;;;;;42.67;5.57;;;13.20;99.90;;;;;;4975588;28;20506;-75
2020/12/22 06:37:20;;;;;;;39.70;5.95;;;13.20;99.90;;;;;;4979849;28;20781;-78
2020/12/22 06:39:48;;;;;;;43.22;5.30;;;13.20;99.90;;;;;;4984690;28;20426;-76
2020/12/22 06:42:42;;;;;;;38.25;5.55;;;13.20;99.90;;;;;;4973320;28;20435;-75
2020/12/22 06:45:25;;;;;;;37.67;5.50;;;13.20;99.90;;;;;;4975117;28;20514;-75
2020/12/22 06:47:52;;;;;;;44.45;5.55;;;13.20;99.90;;;;;;4981823;28;20417;-76
2020/12/22 06:50:37;;;;;;;40.27;5.27;;;13.20;99.90;;;;;;4993346;28;20421;-77
2020/12/22 06:53:04;;;;;;;37.83;5.53;;;13.20;99.90;;;;;;4979557;28;20914;-75
2020/12/22 06:55:52;;;;;;;41.60;5.60;;;13.20;99.90;;;;;;4976481;28;20426;-77
2020/12/22 06:58:38;;;;;;;43.70;5.53;;;13.20;99.90;;;;;;4978329;28;20527;-76
2020/12/22 07:01:31;;;;;;;45.13;5.45;;;13.10;99.90;;;;;;4972250;28;20426;-77
2020/12/22 07:04:14;;;;;;;47.43;5.20;;;13.10;99.90;;;;;;4983321;28;20448;-76
2020/12/22 07:07:01;;;;;;;45.35;5.65;;;13.10;99.90;;;;;;4975627;28;20454;-75
2020/12/22 07:09:30;;;;;;;50.35;6.20;;;13.00;99.90;;;;;;4973967;28;20435;-76
2020/12/22 07:12:09;;;;;;;49.63;6.00;;;13.00;99.90;;;;;;4978392;28;20512;-76
2020/12/22 07:14:38;;;;;;;46.75;5.85;;;13.00;99.90;;;;;;4989678;28;20431;-76
2020/12/22 07:17:06;;;;;;;52.55;6.47;;;13.00;99.90;;;;;;4982780;28;20511;-75
2020/12/22 07:19:34;;;;;;;49.90;6.47;;;12.90;99.90;;;;;;4979070;28;20414;-77
2020/12/22 07:22:03;;;;;;;51.45;6.45;;;12.90;99.90;;;;;;4987930;28;20422;-77
2020/12/22 07:24:31;;;;;;;67.78;7.68;;;12.80;99.90;;;;;;4992082;28;20545;-77
2020/12/22 07:26:59;;;;;;;47.03;6.38;;;12.80;99.90;;;;;;4983167;28;20430;-78
2020/12/22 07:29:25;;;;;;;47.13;6.07;;;12.80;99.90;;;;;;4977021;28;20952;-76
2020/12/22 07:31:52;;;;;;;53.25;7.03;;;12.80;99.90;;;;;;4983453;28;20462;-79
2020/12/22 07:34:19;;;;;;;51.67;6.10;;;12.80;99.90;;;;;;4980416;28;20433;-77
2020/12/22 07:36:47;;;;;;;56.50;6.22;;;12.80;99.90;;;;;;4976470;28;20466;-77
2020/12/22 07:39:16;;;;;;;54.60;6.22;;;12.80;99.90;;;;;;4986677;28;20886;-76
2020/12/22 07:41:44;;;;;;;43.08;5.97;;;12.80;99.90;;;;;;4980993;28;20801;-78
2020/12/22 07:44:12;;;;;;;57.97;6.63;;;12.80;99.90;;;;;;4982390;28;20414;-77
2020/12/22 07:46:39;;;;;;;53.97;6.70;;;12.70;99.90;;;;;;4979565;28;20406;-79
2020/12/22 07:49:07;;;;;;;46.53;5.80;;;12.80;99.90;;;;;;4982000;28;20453;-79
2020/12/22 07:51:34;;;;;;;51.05;6.25;;;12.80;99.90;;;;;;4984721;28;20433;-82
2020/12/22 07:54:05;;;;;;;43.72;5.30;;;12.80;99.90;;;;;;4976963;28;20426;-81
2020/12/22 07:56:33;;;;;;;46.47;5.35;;;12.80;99.90;;;;;;4975190;28;20476;-78
2020/12/22 07:59:03;;;;;;;48.13;6.20;;;12.80;99.90;;;;;;4986377;28;20424;-80
2020/12/22 08:01:31;;;;;;;47.63;5.30;;;12.80;99.90;;;;;;4985611;28;20443;-79
2020/12/22 08:03:58;;;;;;;50.17;5.22;;;12.80;99.90;;;;;;4980486;28;20419;-81
2020/12/22 08:06:24;;;;;;;50.40;6.30;;;12.80;99.90;;;;;;4985979;28;20424;-80
2020/12/22 08:08:58;;;;;;;50.88;5.63;;;12.80;99.90;;;;;;4982118;28;20420;-79
2020/12/22 08:11:25;;;;;;;39.13;4.93;;;12.80;99.90;;;;;;4982325;28;20432;-80
2020/12/22 08:13:52;;;;;;;44.80;5.60;;;12.80;99.90;;;;;;4983763;28;20777;-79
2020/12/22 08:16:20;;;;;;;45.75;5.10;;;12.80;99.90;;;;;;4980646;28;20435;-78
2020/12/22 08:18:48;;;;;;;43.42;5.00;;;12.80;99.90;;;;;;4975424;28;20756;-78
2020/12/22 08:21:19;;;;;;;40.05;4.78;;;12.80;99.90;;;;;;4975172;28;20811;-78
2020/12/22 08:23:46;;;;;;;39.95;4.63;;;12.90;99.90;;;;;;4986057;28;20477;-79
2020/12/22 08:26:17;;;;;;;38.83;4.90;;;12.80;99.90;;;;;;4982097;28;20419;-80
2020/12/22 08:28:52;;;;;;;38.58;3.83;;;12.80;99.90;;;;;;4981291;28;20435;-77
2020/12/22 08:31:26;;;;;;;39.95;3.95;;;12.80;99.90;;;;;;4982878;28;20945;-79
2020/12/22 08:33:55;;;;;;;39.07;3.83;;;12.80;99.90;;;;;;4984899;28;20999;-79
2020/12/22 08:36:22;;;;;;;31.02;3.47;;;12.70;99.90;;;;;;4982623;28;20431;-79
2020/12/22 08:38:49;;;;;;;27.60;3.10;;;12.70;99.90;;;;;;4975282;28;20533;-79
2020/12/22 08:41:18;;;;;;;23.92;3.10;;;12.70;99.90;;;;;;4976089;28;20422;-79
2020/12/22 08:43:49;;;;;;;25.55;3.03;;;12.60;99.90;;;;;;4982592;28;20479;-78
2020/12/22 08:46:17;;;;;;;20.55;3.00;;;12.60;99.90;;;;;;4974357;28;20434;-78
2020/12/22 08:48:44;;;;;;;26.70;2.90;;;12.60;99.90;;;;;;4982824;28;20829;-78
2020/12/22 08:51:11;;;;;;;25.85;3.67;;;12.60;99.90;;;;;;4974949;28;20814;-79
2020/12/22 08:53:48;;;;;;;28.98;3.50;;;12.60;99.90;;;;;;4988221;28;20548;-79
2020/12/22 08:56:15;;;;;;;25.80;3.15;;;12.60;99.90;;;;;;4981844;28;20427;-77
2020/12/22 08:58:55;;;;;;;20.13;3.28;;;12.50;99.90;;;;;;4985398;28;20839;-78
2020/12/22 09:01:23;;;;;;;16.17;3.00;;;12.50;99.90;;;;;;4972830;28;20435;-80
2020/12/22 09:03:55;;;;;;;20.13;2.72;;;12.50;99.90;;;;;;4977907;28;20490;-79
2020/12/22 09:06:45;;;;;;;23.67;3.17;;;12.40;99.90;;;;;;4983766;28;20430;-78
2020/12/22 09:09:15;;;;;;;24.58;3.70;;;12.40;99.90;;;;;;4982054;28;20469;-79
2020/12/22 09:11:42;;;;;;;18.97;3.07;;;12.40;99.90;;;;;;4974383;28;20743;-78
2020/12/22 09:14:11;;;;;;;19.60;2.95;;;12.40;99.90;;;;;;4985027;28;20502;-79
2020/12/22 09:16:59;;;;;;;20.92;3.47;;;12.40;99.90;;;;;;4985567;28;20504;-79
2020/12/22 09:19:39;;;;;;;22.67;3.38;;;12.40;99.90;;;;;;4982967;28;20465;-80
2020/12/22 09:22:06;;;;;;;17.80;3.20;;;12.40;99.90;;;;;;4984453;28;20442;-79
2020/12/22 09:24:33;;;;;;;17.95;3.38;;;12.40;99.90;;;;;;4978591;28;20500;-79
2020/12/22 09:27:02;;;;;;;17.85;3.13;;;12.40;99.90;;;;;;4984887;28;20422;-79
2020/12/22 09:29:29;;;;;;;21.83;3.22;;;12.40;99.90;;;;;;4972460;28;20481;-80
2020/12/22 09:31:57;;;;;;;19.67;3.33;;;12.40;99.90;;;;;;4974408;28;20422;-80
2020/12/22 09:34:24;;;;;;;22.30;3.53;;;12.40;99.90;;;;;;4972291;28;20935;-79
2020/12/22 09:36:54;;;;;;;21.92;3.50;;;12.40;99.90;;;;;;4980649;28;20427;-78
2020/12/22 09:39:21;;;;;;;21.25;5.22;;;12.40;99.90;;;;;;4988046;28;20458;-78
2020/12/22 09:41:48;;;;;;;20.77;3.45;;;12.50;99.90;;;;;;4983323;28;20416;-79
2020/12/22 09:44:14;;;;;;;17.60;3.03;;;12.50;99.90;;;;;;4974202;28;20433;-79
2020/12/22 09:46:41;;;;;;;14.05;2.90;;;12.50;99.90;;;;;;4974159;28;20430;-79
2020/12/22 09:49:07;;;;;;;15.50;3.27;;;12.50;99.90;;;;;;4981207;28;20914;-82
2020/12/22 09:51:34;;;;;;;17.73;3.45;;;12.50;99.90;;;;;;4986841;28;20961;-82
2020/12/22 09:54:01;;;;;;;17.10;3.13;;;12.50;99.90;;;;;;4982813;28;20422;-77
2020/12/22 09:56:30;;;;;;;16.70;3.10;;;12.50;99.90;;;;;;4974620;28;20458;-77
2020/12/22 09:58:57;;;;;;;17.60;3.10;;;12.50;99.90;;;;;;4972629;28;20462;-77
2020/12/22 10:01:24;;;;;;;16.55;3.15;;;12.60;99.90;;;;;;4985624;28;20423;-84
2020/12/22 10:03:51;;;;;;;19.77;3.10;;;12.60;99.90;;;;;;4974173;28;20831;-80
2020/12/22 10:06:18;;;;;;;15.17;3.23;;;12.60;99.90;;;;;;4986058;28;20431;-77
2020/12/22 10:08:45;;;;;;;15.52;3.03;;;12.60;99.90;;;;;;4983883;28;20476;-81
2020/12/22 10:11:12;;;;;;;13.60;2.72;;;12.60;99.90;;;;;;4984138;28;20457;-78
2020/12/22 10:13:41;;;;;;;17.10;3.10;;;12.60;99.90;;;;;;4983226;28;20515;-80
2020/12/22 10:16:09;;;;;;;13.93;3.28;;;12.60;99.90;;;;;;4973510;28;20434;-81
2020/12/22 10:18:36;;;;;;;15.30;2.92;;;12.60;99.90;;;;;;4983531;28;20780;-79
2020/12/22 10:21:04;;;;;;;18.63;3.17;;;12.60;99.90;;;;;;4980388;28;20511;-78
2020/12/22 10:23:31;;;;;;;14.10;2.80;;;12.60;99.90;;;;;;4983340;28;20978;-80
2020/12/22 10:25:57;;;;;;;12.55;2.90;;;12.60;99.90;;;;;;4972665;28;20450;-80
2020/12/22 10:28:25;;;;;;;15.77;3.13;;;12.60;99.90;;;;;;4978595;28;20477;-83
2020/12/22 10:30:51;;;;;;;14.17;2.90;;;12.60;99.90;;;;;;4983524;28;20466;-80
2020/12/22 10:33:18;;;;;;;11.45;2.65;;;12.60;99.90;;;;;;4980349;28;20758;-80
2020/12/22 10:35:45;;;;;;;13.38;2.83;;;12.60;99.90;;;;;;4985800;28;20445;-79
2020/12/22 10:38:12;;;;;;;16.33;3.00;;;12.60;99.90;;;;;;4973013;28;20432;-79
2020/12/22 10:40:39;;;;;;;16.48;3.95;;;12.60;99.90;;;;;;4974291;28;20954;-79
2020/12/22 10:43:06;;;;;;;12.70;3.10;;;12.50;99.90;;;;;;4984285;28;20449;-79
2020/12/22 10:45:34;;;;;;;12.95;2.63;;;12.60;99.90;;;;;;4982546;28;20419;-78
2020/12/22 10:48:00;;;;;;;9.73;2.00;;;12.50;99.90;;;;;;4984185;28;20421;-79
2020/12/22 10:50:28;;;;;;;11.68;2.15;;;12.60;99.90;;;;;;4974506;28;20206;-78
2020/12/22 10:52:54;;;;;;;8.15;1.90;;;12.20;99.90;;;;;;4981270;28;20944;-78
2020/12/22 10:55:21;;;;;;;9.13;1.90;;;12.00;99.90;;;;;;4990456;28;20202;-77
2020/12/22 10:57:48;;;;;;;8.18;2.30;;;11.80;99.90;;;;;;4976566;28;20233;-79
2020/12/22 11:00:14;;;;;;;8.00;2.20;;;11.70;99.90;;;;;;4985859;28;20441;-81
2020/12/22 11:02:41;;;;;;;7.13;2.40;;;11.90;99.90;;;;;;4990072;28;20280;-79
2020/12/22 11:05:08;;;;;;;12.35;2.22;;;11.80;99.90;;;;;;4978526;28;20209;-81
2020/12/22 11:07:39;;;;;;;6.18;2.33;;;11.60;99.90;;;;;;4987622;28;20531;-79
2020/12/22 11:10:06;;;;;;;6.15;2.33;;;11.50;99.90;;;;;;4985973;28;20220;-81
2020/12/22 11:12:32;;;;;;;12.02;2.75;;;11.50;99.90;;;;;;4991875;28;20289;-81
2020/12/22 11:14:59;;;;;;;10.23;2.70;;;11.40;99.90;;;;;;4976578;28;20205;-79
2020/12/22 11:17:26;;;;;;;11.57;3.25;;;11.40;99.90;;;;;;4987937;28;20740;-81
2020/12/22 11:19:54;;;;;;;10.88;3.28;;;11.40;99.90;;;;;;4992742;28;20204;-80
2020/12/22 11:22:20;;;;;;;10.27;2.63;;;11.30;99.90;;;;;;4976941;28;20251;-76
2020/12/22 11:24:46;;;;;;;8.50;2.88;;;11.30;99.90;;;;;;4993822;28;20216;-81
2020/12/22 11:27:15;;;;;;;11.47;3.00;;;11.30;99.90;;;;;;4986380;28;20426;-79
2020/12/22 11:29:42;;;;;;;14.73;3.20;;;11.60;99.90;;;;;;4976920;28;20461;-78
2020/12/22 11:32:09;;;;;;;12.35;3.05;;;11.90;99.90;;;;;;4983595;28;20456;-78
2020/12/22 11:34:36;;;;;;;13.77;3.07;;;12.10;99.90;;;;;;4988638;28;20540;-79
2020/12/22 11:37:04;;;;;;;12.82;3.67;;;12.20;99.90;;;;;;4984435;28;20440;-78
2020/12/22 11:39:30;;;;;;;16.20;3.47;;;12.30;99.90;;;;;;4977184;28;20441;-78
2020/12/22 11:42:01;;;;;;;9.73;2.50;;;12.40;99.90;;;;;;4988497;28;20201;-80
2020/12/22 11:44:28;;;;;;;11.85;2.60;;;12.10;99.90;;;;;;4990022;28;20288;-79
2020/12/22 11:46:54;;;;;;;15.40;3.20;;;11.90;99.90;;;;;;4984088;28;20209;-79
2020/12/22 11:49:22;;;;;;;9.73;2.30;;;11.80;99.90;;;;;;4989166;28;20572;-79
2020/12/22 11:51:54;;;;;;;12.25;2.30;;;11.70;99.90;;;;;;4986176;28;20279;-78
2020/12/22 11:54:22;;;;;;;12.10;2.70;;;11.60;99.90;;;;;;4975827;28;20232;-83
2020/12/22 11:56:49;;;;;;;11.55;2.55;;;11.50;99.90;;;;;;4975044;28;20829;-79
2020/12/22 11:59:18;;;;;;;11.60;3.17;;;11.80;99.90;;;;;;4984646;28;20944;-79
2020/12/22 12:01:45;;;;;;;11.33;2.83;;;12.10;99.90;;;;;;4984109;28;21112;-78
2020/12/22 12:04:12;;;;;;;12.07;2.55;;;12.20;99.90;;;;;;4974947;28;20916;-79
2020/12/22 12:06:44;;;;;;;12.38;2.80;;;12.40;99.90;;;;;;4980126;28;20430;-76
2020/12/22 12:09:11;;;;;;;13.70;3.10;;;12.40;99.90;;;;;;4973106;28;20443;-79
2020/12/22 12:11:38;;;;;;;11.25;2.40;;;12.50;99.90;;;;;;4986913;28;20430;-79
2020/12/22 12:14:05;;;;;;;9.63;2.22;;;12.60;99.90;;;;;;4989580;28;20439;-79
2020/12/22 12:16:31;;;;;;;7.50;1.95;;;12.60;99.90;;;;;;4976141;28;20445;-78
2020/12/22 12:18:57;;;;;;;6.32;1.50;;;12.60;99.90;;;;;;4975529;28;21048;-77
2020/12/22 12:21:24;;;;;;;9.65;1.88;;;12.60;99.90;;;;;;4986693;28;20424;-78
2020/12/22 12:23:51;;;;;;;9.57;1.90;;;12.70;99.90;;;;;;4984785;28;20441;-78
2020/12/22 12:26:17;;;;;;;11.68;1.83;;;12.70;99.90;;;;;;4982890;28;20473;-77
2020/12/22 12:28:44;;;;;;;9.00;1.80;;;12.70;99.90;;;;;;4985133;28;20416;-78
2020/12/22 12:31:13;;;;;;;9.27;1.90;;;12.70;99.90;;;;;;4987714;28;20420;-78
2020/12/22 12:33:42;;;;;;;12.45;2.03;;;12.60;99.90;;;;;;4982344;28;20465;-78
2020/12/22 12:36:12;;;;;;;10.32;2.00;;;12.70;99.90;;;;;;4986676;28;20478;-77
2020/12/22 12:38:41;;;;;;;10.07;1.80;;;12.60;99.90;;;;;;4980696;28;20450;-77
2020/12/22 12:41:11;;;;;;;9.57;1.98;;;12.60;99.90;;;;;;4974339;28;20443;-80
2020/12/22 12:43:37;;;;;;;9.20;1.95;;;12.70;99.90;;;;;;4975674;28;20465;-80